Penn Hills, Pennsylvania
Current Conditions -  °F | °C
As of 2:06 AM on Friday 28 Nov 2014 (Local Time) from KAGC Reporting Station
Light Snow Light Snow  
Wind Chill: 20°   Ceiling: 2400
Heat Index: 28°   Visibility: 1.7mi
Dew Point: 20°   Wind: 8mph
Humidity: 72%   Direction: 290°WNW
Pressure: 30.2"   Gusts: 17mph
Location:  40.4601°N, 79.8243°W
Report Text: KAGC 280706Z 29007G15KT 1 3/4SM -SN BKN024 BKN028 OVC033 M02/M07 A3020 RMK AO2 SNB0657 P0000 T10221067
Loading
Personal Weather Stations






























Interactive Weather Map New forecast layout! Learn more

10-Day Weather Forecast

Advertisements
Track Severe Weather on mobile